createdAt,value
2024-03-05T00:00:13.414Z,39.40
2024-03-05T00:02:42.039Z,37.60
2024-03-05T00:05:10.773Z,36.28
2024-03-05T00:07:38.799Z,45.90
2024-03-05T00:10:08.561Z,41.72
2024-03-05T00:12:36.973Z,41.58
2024-03-05T00:15:06.419Z,42.40
2024-03-05T00:17:35.887Z,41.50
2024-03-05T00:20:04.488Z,44.33
2024-03-05T00:22:32.649Z,44.13
2024-03-05T00:25:00.916Z,41.83
2024-03-05T00:27:29.037Z,40.58
2024-03-05T00:29:57.900Z,43.15
2024-03-05T00:32:26.014Z,42.38
2024-03-05T00:34:55.517Z,45.63
2024-03-05T00:37:23.761Z,41.58
2024-03-05T00:39:52.010Z,40.75
2024-03-05T00:42:20.133Z,37.13
2024-03-05T00:44:48.274Z,42.25
2024-03-05T00:47:16.404Z,39.42
2024-03-05T00:49:44.653Z,41.22
2024-03-05T00:52:14.835Z,40.15
2024-03-05T00:54:42.956Z,41.15
2024-03-05T00:57:11.157Z,40.85
2024-03-05T00:59:39.212Z,38.70
2024-03-05T01:02:07.626Z,37.35
2024-03-05T01:04:35.896Z,40.10
2024-03-05T01:07:03.983Z,39.47
2024-03-05T01:09:33.500Z,37.25
2024-03-05T01:12:02.313Z,40.40
2024-03-05T01:14:31.828Z,40.47
2024-03-05T01:16:59.021Z,35.70
2024-03-05T01:19:27.098Z,45.72
2024-03-05T01:21:55.636Z,42.67
2024-03-05T01:24:26.235Z,41.40
2024-03-05T01:26:55.952Z,41.08
2024-03-05T01:29:24.022Z,36.25
2024-03-05T01:31:57.464Z,38.35
2024-03-05T01:34:25.693Z,40.08
2024-03-05T01:36:58.159Z,42.22
2024-03-05T01:39:27.224Z,42.67
2024-03-05T01:41:57.012Z,46.25
2024-03-05T01:44:25.754Z,42.55
2024-03-05T01:46:57.521Z,43.10
2024-03-05T01:49:27.227Z,38.20
2024-03-05T01:51:58.583Z,39.50
2024-03-05T01:54:30.073Z,35.50
2024-03-05T01:57:04.933Z,39.28
2024-03-05T01:59:33.316Z,37.53
2024-03-05T02:02:01.528Z,41.13
2024-03-05T02:04:32.904Z,41.78
2024-03-05T02:07:03.766Z,39.45
2024-03-05T02:09:32.150Z,35.42
2024-03-05T02:12:04.249Z,38.40
2024-03-05T02:14:33.708Z,40.72
2024-03-05T02:17:03.107Z,42.47
2024-03-05T02:19:31.339Z,40.35
2024-03-05T02:22:03.798Z,41.85
2024-03-05T02:24:32.396Z,43.80
2024-03-05T02:27:03.017Z,46.92
2024-03-05T02:31:59.816Z,43.63
2024-03-05T02:34:28.878Z,44.20
2024-03-05T02:36:57.777Z,47.28
2024-03-05T02:39:28.485Z,56.20
2024-03-05T02:44:24.808Z,36.72
2024-03-05T02:46:53.047Z,43.15
2024-03-05T02:49:21.422Z,43.92
2024-03-05T02:51:50.374Z,40.58
2024-03-05T02:54:18.432Z,40.05
2024-03-05T02:56:48.073Z,39.50
2024-03-05T02:59:16.607Z,47.42
2024-03-05T03:01:48.932Z,41.08
2024-03-05T03:04:17.637Z,42.38
2024-03-05T03:06:45.738Z,37.30
2024-03-05T03:09:14.009Z,42.53
2024-03-05T03:11:43.194Z,41.90
2024-03-05T03:14:13.413Z,46.08
2024-03-05T03:16:44.910Z,40.55
2024-03-05T03:19:13.560Z,43.17
2024-03-05T03:21:42.474Z,39.95
2024-03-05T03:24:12.997Z,39.90
2024-03-05T03:26:41.179Z,45.42
2024-03-05T03:29:12.617Z,47.78
2024-03-05T03:31:47.120Z,44.50
2024-03-05T03:34:17.486Z,45.70
2024-03-05T03:36:45.945Z,45.42
2024-03-05T03:39:24.851Z,45.38
2024-03-05T03:41:56.286Z,44.97
2024-03-05T03:46:54.731Z,42.05
2024-03-05T03:49:25.469Z,41.30
2024-03-05T03:51:55.463Z,39.80
2024-03-05T03:54:24.226Z,44.47
2024-03-05T03:56:52.832Z,45.83
2024-03-05T03:59:21.432Z,45.83
2024-03-05T04:01:51.047Z,46.65
2024-03-05T04:04:20.569Z,50.05
2024-03-05T04:06:49.108Z,47.83
2024-03-05T04:09:18.168Z,42.25
2024-03-05T04:11:47.557Z,45.67
2024-03-05T04:14:15.861Z,45.78
2024-03-05T04:16:44.875Z,46.95
2024-03-05T04:19:13.300Z,47.90
2024-03-05T04:21:47.309Z,47.88
2024-03-05T04:24:15.529Z,45.30
2024-03-05T04:26:44.382Z,45.13
2024-03-05T04:29:18.216Z,43.60
2024-03-05T04:31:56.361Z,46.50
2024-03-05T04:34:24.990Z,41.83
2024-03-05T04:36:56.264Z,39.67
2024-03-05T04:39:26.173Z,38.80
2024-03-05T04:41:54.643Z,35.95
2024-03-05T04:44:22.911Z,41.22
2024-03-05T04:46:50.967Z,33.20
2024-03-05T04:49:19.341Z,32.55
2024-03-05T04:51:47.909Z,30.55
2024-03-05T04:54:17.448Z,32.28
2024-03-05T04:56:45.545Z,36.08
2024-03-05T04:59:13.729Z,27.48
2024-03-05T05:01:45.588Z,33.75
2024-03-05T05:04:13.764Z,35.10
2024-03-05T05:06:42.293Z,33.25
2024-03-05T05:09:10.596Z,27.25
2024-03-05T05:11:40.297Z,29.35
2024-03-05T05:14:09.172Z,29.05
2024-03-05T05:16:37.573Z,31.70
2024-03-05T05:19:06.417Z,29.20
2024-03-05T05:21:35.734Z,28.48
2024-03-05T05:24:05.943Z,25.70
2024-03-05T05:26:34.294Z,26.25
2024-03-05T05:29:04.098Z,25.50
2024-03-05T05:31:32.969Z,24.50
2024-03-05T05:34:01.365Z,25.30
2024-03-05T05:36:29.580Z,28.85
2024-03-05T05:38:58.131Z,25.88
2024-03-05T05:41:26.399Z,23.45
2024-03-05T05:43:54.573Z,25.20
2024-03-05T05:46:26.212Z,25.65
2024-03-05T05:48:55.742Z,18.08
2024-03-05T05:51:25.248Z,21.40
2024-03-05T05:53:55.121Z,21.75
2024-03-05T05:56:23.274Z,24.58
2024-03-05T05:58:51.881Z,20.38
2024-03-05T06:01:20.351Z,29.80
2024-03-05T06:03:50.406Z,35.78
2024-03-05T06:06:21.226Z,26.90
2024-03-05T06:08:49.834Z,29.52
2024-03-05T06:11:18.251Z,28.15
2024-03-05T06:13:46.606Z,27.05
2024-03-05T06:16:14.726Z,27.63
2024-03-05T06:18:42.744Z,30.27
2024-03-05T06:21:12.715Z,31.05
2024-03-05T06:23:40.738Z,26.08
2024-03-05T06:26:09.407Z,23.15
2024-03-05T06:28:39.162Z,32.83
2024-03-05T06:31:07.422Z,26.83
2024-03-05T06:33:35.704Z,26.85
2024-03-05T06:36:08.086Z,30.23
2024-03-05T06:38:39.105Z,26.52
2024-03-05T06:41:07.497Z,23.95
2024-03-05T06:43:38.146Z,29.17
2024-03-05T06:46:11.334Z,25.60
2024-03-05T06:48:48.553Z,21.50
2024-03-05T06:51:28.356Z,21.30
2024-03-05T06:54:15.645Z,25.25
2024-03-05T06:56:43.998Z,24.45
2024-03-05T06:59:12.292Z,22.80
2024-03-05T07:01:40.698Z,25.88
2024-03-05T07:04:10.501Z,23.95
2024-03-05T07:06:39.229Z,23.88
2024-03-05T07:09:12.891Z,23.88
2024-03-05T07:11:41.295Z,23.40
2024-03-05T07:14:09.848Z,22.50
2024-03-05T07:16:38.011Z,23.63
2024-03-05T07:19:06.261Z,23.35
2024-03-05T07:21:35.319Z,24.40
2024-03-05T07:24:04.050Z,19.85
2024-03-05T07:26:35.971Z,23.55
2024-03-05T07:29:04.216Z,21.05
2024-03-05T07:31:33.172Z,27.23
2024-03-05T07:34:01.257Z,23.73
2024-03-05T07:36:29.997Z,26.02
2024-03-05T07:38:58.284Z,21.67
2024-03-05T07:41:33.364Z,28.05
2024-03-05T07:44:05.988Z,21.63
2024-03-05T07:46:35.575Z,22.13
2024-03-05T07:49:04.294Z,28.10
2024-03-05T07:51:41.181Z,24.33
2024-03-05T07:54:15.057Z,22.95
2024-03-05T07:56:44.509Z,20.45
2024-03-05T07:59:14.785Z,21.23
2024-03-05T08:01:43.181Z,26.55
2024-03-05T08:04:11.705Z,20.92
2024-03-05T08:06:40.030Z,18.98
2024-03-05T08:09:09.308Z,19.58
2024-03-05T08:11:37.923Z,20.38
2024-03-05T08:14:09.086Z,19.55
2024-03-05T08:16:40.503Z,21.05
2024-03-05T08:19:09.419Z,21.02
2024-03-05T08:21:37.853Z,23.08
2024-03-05T08:24:07.819Z,25.08
2024-03-05T08:26:36.216Z,18.95
2024-03-05T08:29:05.050Z,21.73
2024-03-05T08:31:33.359Z,24.40
2024-03-05T08:34:05.746Z,18.58
2024-03-05T08:36:38.470Z,15.43
2024-03-05T08:39:18.714Z,17.92
2024-03-05T08:41:48.409Z,18.25
2024-03-05T08:44:17.913Z,17.80
2024-03-05T08:46:46.203Z,20.35
2024-03-05T08:49:15.970Z,21.20
2024-03-05T08:51:46.594Z,17.75
2024-03-05T08:54:17.377Z,18.38
2024-03-05T08:56:46.144Z,18.15
2024-03-05T08:59:14.416Z,15.63
2024-03-05T09:01:42.754Z,15.13
2024-03-05T09:04:11.293Z,17.42
2024-03-05T09:06:41.924Z,15.23
2024-03-05T09:09:12.428Z,17.92
2024-03-05T09:11:41.210Z,17.42
2024-03-05T09:14:10.186Z,18.65
2024-03-05T09:16:39.454Z,18.60
2024-03-05T09:19:08.181Z,14.38
2024-03-05T09:21:37.240Z,15.45
2024-03-05T09:24:08.095Z,18.13
2024-03-05T09:26:36.645Z,18.17
2024-03-05T09:29:04.860Z,18.40
2024-03-05T09:31:34.218Z,17.48
2024-03-05T09:34:03.558Z,16.33
2024-03-05T09:36:34.362Z,16.88
2024-03-05T09:39:10.826Z,14.27
2024-03-05T09:41:43.911Z,13.68
2024-03-05T09:44:13.515Z,14.07
2024-03-05T09:46:43.545Z,15.50
2024-03-05T09:49:21.388Z,16.30
2024-03-05T09:51:52.501Z,17.10
2024-03-05T09:54:20.665Z,17.58
2024-03-05T09:56:54.980Z,18.60
2024-03-05T09:59:23.248Z,17.15
2024-03-05T10:01:52.052Z,15.45
2024-03-05T10:04:21.200Z,16.17
2024-03-05T10:06:50.373Z,12.60
2024-03-05T10:09:22.419Z,13.55
2024-03-05T10:11:53.541Z,14.52
2024-03-05T10:14:25.429Z,18.50
2024-03-05T10:17:01.648Z,19.80
2024-03-05T10:19:29.966Z,15.98
2024-03-05T10:22:10.306Z,18.77
2024-03-05T10:24:38.641Z,19.73
2024-03-05T10:27:08.458Z,15.43
2024-03-05T10:29:37.745Z,18.70
2024-03-05T10:32:06.633Z,18.88
2024-03-05T10:34:36.253Z,17.75
2024-03-05T10:37:06.326Z,17.08
2024-03-05T10:39:34.830Z,13.73
2024-03-05T10:42:05.090Z,15.15
2024-03-05T10:44:37.794Z,15.90
2024-03-05T10:47:07.917Z,15.93
2024-03-05T10:49:37.834Z,15.43
2024-03-05T10:52:07.665Z,13.88
2024-03-05T10:54:38.875Z,12.00
2024-03-05T10:57:08.283Z,12.18
2024-03-05T10:59:42.335Z,12.55
2024-03-05T11:02:14.450Z,15.10
2024-03-05T11:04:44.832Z,11.95
2024-03-05T11:07:14.506Z,14.98
2024-03-05T11:12:15.057Z,15.05
2024-03-05T11:14:47.986Z,17.33
2024-03-05T11:17:17.402Z,18.85
2024-03-05T11:19:46.730Z,20.17
2024-03-05T11:22:23.516Z,17.65
2024-03-05T11:24:58.619Z,19.73
2024-03-05T11:27:27.922Z,19.77
2024-03-05T11:30:14.176Z,16.98
2024-03-05T11:32:42.838Z,18.55
2024-03-05T11:35:12.478Z,17.50
2024-03-05T11:37:48.962Z,16.25
2024-03-05T11:40:19.292Z,15.32
2024-03-05T11:42:48.349Z,17.20
2024-03-05T11:45:46.151Z,15.98
2024-03-05T11:48:16.035Z,14.73
2024-03-05T11:50:44.443Z,17.48
2024-03-05T11:53:13.337Z,21.05
2024-03-05T11:55:42.129Z,19.42
2024-03-05T11:58:12.059Z,20.73
2024-03-05T12:00:40.622Z,16.65
2024-03-05T12:03:11.127Z,13.40
2024-03-05T12:05:45.629Z,17.60
2024-03-05T12:08:13.964Z,13.38
2024-03-05T12:10:42.569Z,14.80
2024-03-05T12:13:12.825Z,16.15
2024-03-05T12:15:41.125Z,17.63
2024-03-05T12:18:12.651Z,16.52
2024-03-05T12:20:42.861Z,16.65
2024-03-05T12:23:12.278Z,16.38
2024-03-05T12:25:43.567Z,13.13
2024-03-05T12:28:12.923Z,15.10
2024-03-05T12:30:41.956Z,17.60
2024-03-05T12:33:11.534Z,16.95
2024-03-05T12:35:40.422Z,21.38
2024-03-05T12:38:08.565Z,15.27
2024-03-05T12:40:36.968Z,17.60
2024-03-05T12:43:09.839Z,13.48
2024-03-05T12:45:38.775Z,15.30
2024-03-05T12:48:10.173Z,18.58
2024-03-05T12:50:41.123Z,17.95
2024-03-05T12:53:09.722Z,18.10
2024-03-05T12:55:38.512Z,17.42
2024-03-05T12:58:08.136Z,17.65
2024-03-05T13:00:36.894Z,15.15
2024-03-05T13:03:06.270Z,16.90
2024-03-05T13:05:34.497Z,17.77
2024-03-05T13:08:05.680Z,16.02
2024-03-05T13:10:34.623Z,15.88
2024-03-05T13:13:05.694Z,13.02
2024-03-05T13:15:33.854Z,16.25
2024-03-05T13:18:02.118Z,21.20
2024-03-05T13:20:31.580Z,20.73
2024-03-05T13:23:00.886Z,17.02
2024-03-05T13:25:31.695Z,19.63
2024-03-05T13:28:01.774Z,19.92
2024-03-05T13:30:30.029Z,19.33
2024-03-05T13:33:02.683Z,18.30
2024-03-05T13:35:33.582Z,19.17
2024-03-05T13:38:02.497Z,21.83
2024-03-05T13:40:34.302Z,18.20
2024-03-05T13:43:02.858Z,24.88
2024-03-05T13:45:31.736Z,23.73
2024-03-05T13:48:00.094Z,19.42
2024-03-05T13:50:34.911Z,22.70
2024-03-05T13:53:03.155Z,22.48
2024-03-05T13:55:32.724Z,21.23
2024-03-05T13:58:00.882Z,21.48
2024-03-05T14:00:32.827Z,23.05
2024-03-05T14:03:01.399Z,25.42
2024-03-05T14:05:29.798Z,31.63
2024-03-05T14:07:59.382Z,22.35
2024-03-05T14:10:27.615Z,25.17
2024-03-05T14:12:57.202Z,24.58
2024-03-05T14:15:26.079Z,23.98
2024-03-05T14:17:54.554Z,23.48
2024-03-05T14:20:29.509Z,24.30
2024-03-05T14:22:57.982Z,24.88
2024-03-05T14:25:26.177Z,21.88
2024-03-05T14:27:54.820Z,23.23
2024-03-05T14:30:27.211Z,27.60
2024-03-05T14:33:00.217Z,23.67
2024-03-05T14:35:28.703Z,23.13
2024-03-05T14:37:57.600Z,25.55
2024-03-05T14:40:27.342Z,25.35
2024-03-05T14:42:55.659Z,24.52
2024-03-05T14:45:26.225Z,27.65
2024-03-05T14:47:54.328Z,21.92
2024-03-05T14:50:23.814Z,30.63
2024-03-05T14:52:54.016Z,26.02
2024-03-05T14:55:23.776Z,24.33
2024-03-05T14:57:52.089Z,25.05
2024-03-05T15:00:24.110Z,26.50
2024-03-05T15:02:54.454Z,23.88
2024-03-05T15:05:23.723Z,23.80
2024-03-05T15:07:54.122Z,26.63
2024-03-05T15:10:23.219Z,27.25
2024-03-05T15:12:52.888Z,24.80
2024-03-05T15:15:22.226Z,24.25
2024-03-05T15:17:50.719Z,25.65
2024-03-05T15:20:23.257Z,25.80
2024-03-05T15:22:52.211Z,23.20
2024-03-05T15:25:22.847Z,28.05
2024-03-05T15:30:22.685Z,23.73
2024-03-05T15:32:52.925Z,21.63
2024-03-05T15:35:23.328Z,24.50
2024-03-05T15:37:53.108Z,21.15
2024-03-05T15:40:23.759Z,19.23
2024-03-05T15:42:53.840Z,25.20
2024-03-05T15:45:23.527Z,22.48
2024-03-05T15:47:54.018Z,21.45
2024-03-05T15:50:25.268Z,19.60
2024-03-05T15:52:54.849Z,19.70
2024-03-05T15:55:25.685Z,22.95
2024-03-05T15:58:09.347Z,22.73
2024-03-05T16:00:38.144Z,18.38
2024-03-05T16:03:08.718Z,19.73
2024-03-05T16:05:47.588Z,20.52
2024-03-05T16:08:25.504Z,22.58
2024-03-05T16:10:55.015Z,21.30
2024-03-05T16:13:23.973Z,19.52
2024-03-05T16:15:52.981Z,21.60
2024-03-05T16:18:23.089Z,23.63
2024-03-05T16:20:53.932Z,24.75
2024-03-05T16:23:22.895Z,22.40
2024-03-05T16:25:52.785Z,21.63
2024-03-05T16:28:21.942Z,24.10
2024-03-05T16:30:50.232Z,24.90
2024-03-05T16:33:18.276Z,22.77
2024-03-05T16:35:48.163Z,27.33
2024-03-05T16:38:18.659Z,27.98
2024-03-05T16:40:46.855Z,25.63
2024-03-05T16:43:16.348Z,26.67
2024-03-05T16:45:44.523Z,23.73
2024-03-05T16:48:12.846Z,16.42
2024-03-05T16:50:41.445Z,14.35
2024-03-05T16:53:11.320Z,15.15
2024-03-05T16:55:43.270Z,14.60
2024-03-05T16:58:15.022Z,15.82
2024-03-05T17:00:52.504Z,17.30
2024-03-05T17:03:22.832Z,16.35
2024-03-05T17:05:54.443Z,15.18
2024-03-05T17:08:24.942Z,15.35
2024-03-05T17:13:28.152Z,20.10
2024-03-05T17:16:00.730Z,16.00
2024-03-05T17:18:34.086Z,21.52
2024-03-05T17:21:05.204Z,20.27
2024-03-05T17:26:03.588Z,19.08
2024-03-05T17:28:32.447Z,17.25
2024-03-05T17:31:00.917Z,20.85
2024-03-05T17:33:29.761Z,21.17
2024-03-05T17:35:59.391Z,20.90
2024-03-05T17:38:31.608Z,22.33
2024-03-05T17:41:04.739Z,20.92
2024-03-05T17:43:33.048Z,16.27
2024-03-05T17:46:02.674Z,16.08
2024-03-05T17:48:30.985Z,19.13
2024-03-05T17:50:59.457Z,14.60
2024-03-05T17:53:27.650Z,15.20
2024-03-05T17:55:57.152Z,16.17
2024-03-05T17:58:26.961Z,17.02
2024-03-05T18:00:55.328Z,17.13
2024-03-05T18:03:24.525Z,17.83
2024-03-05T18:05:53.881Z,17.40
2024-03-05T18:08:22.424Z,18.05
2024-03-05T18:10:50.921Z,16.02
2024-03-05T18:13:22.275Z,18.58
2024-03-05T18:15:53.375Z,16.15
2024-03-05T18:20:50.217Z,17.30
2024-03-05T18:23:18.743Z,17.90
2024-03-05T18:25:48.245Z,15.55
2024-03-05T18:28:21.389Z,15.95
2024-03-05T18:30:51.478Z,14.43
2024-03-05T18:33:20.102Z,16.25
2024-03-05T18:35:48.706Z,12.75
2024-03-05T18:38:24.939Z,13.60
2024-03-05T18:41:01.436Z,15.82
2024-03-05T18:43:31.651Z,12.57
2024-03-05T18:46:05.024Z,16.67
2024-03-05T18:48:34.951Z,14.88
2024-03-05T18:51:03.524Z,15.98
2024-03-05T18:53:39.545Z,14.43
2024-03-05T18:56:13.881Z,15.68
2024-03-05T18:58:44.634Z,15.40
2024-03-05T19:01:15.768Z,15.00
2024-03-05T19:03:45.856Z,20.77
2024-03-05T19:06:14.152Z,14.82
2024-03-05T19:08:42.448Z,14.25
2024-03-05T19:11:12.497Z,15.25
2024-03-05T19:13:43.115Z,18.33
2024-03-05T19:16:11.587Z,17.60
2024-03-05T19:18:41.196Z,14.35
2024-03-05T19:21:12.626Z,20.55
2024-03-05T19:23:42.704Z,18.33
2024-03-05T19:26:13.533Z,19.05
2024-03-05T19:28:41.899Z,22.42
2024-03-05T19:31:10.816Z,20.60
2024-03-05T19:33:39.163Z,22.70
2024-03-05T19:36:11.208Z,22.58
2024-03-05T19:38:41.804Z,22.48
2024-03-05T19:41:11.280Z,22.85
2024-03-05T19:43:41.030Z,18.15
2024-03-05T19:46:09.656Z,22.55
2024-03-05T19:48:39.349Z,21.92
2024-03-05T19:51:11.540Z,21.40
2024-03-05T19:53:39.817Z,21.63
2024-03-05T19:56:08.414Z,21.35
2024-03-05T19:58:36.594Z,26.23
2024-03-05T20:01:08.324Z,22.88
2024-03-05T20:03:37.211Z,29.00
2024-03-05T20:06:09.384Z,24.20
2024-03-05T20:08:39.354Z,25.02
2024-03-05T20:11:12.109Z,22.20
2024-03-05T20:13:40.964Z,28.30
2024-03-05T20:16:10.676Z,28.70
2024-03-05T20:18:39.160Z,24.67
2024-03-05T20:21:09.882Z,26.95
2024-03-05T20:23:44.019Z,28.25
2024-03-05T20:26:12.618Z,24.10
2024-03-05T20:28:40.671Z,25.98
2024-03-05T20:31:11.006Z,20.95
2024-03-05T20:33:40.719Z,22.05
2024-03-05T20:36:11.009Z,22.73
2024-03-05T20:38:39.521Z,25.13
2024-03-05T20:41:09.571Z,23.38
2024-03-05T20:43:37.861Z,26.20
2024-03-05T20:46:06.207Z,21.33
2024-03-05T20:48:35.461Z,27.02
2024-03-05T20:51:03.958Z,23.83
2024-03-05T20:53:32.103Z,24.27
2024-03-05T20:56:00.309Z,21.17
2024-03-05T20:58:32.259Z,19.75
2024-03-05T21:01:00.347Z,23.90
2024-03-05T21:03:31.637Z,28.20
2024-03-05T21:05:59.805Z,24.65
2024-03-05T21:08:28.016Z,21.73
2024-03-05T21:10:56.244Z,23.48
2024-03-05T21:13:27.140Z,30.33
2024-03-05T21:18:24.785Z,24.52
2024-03-05T21:20:52.811Z,21.17
2024-03-05T21:23:21.086Z,26.92
2024-03-05T21:26:03.183Z,25.25
2024-03-05T21:28:37.921Z,20.70
2024-03-05T21:31:07.984Z,24.55
2024-03-05T21:33:36.029Z,21.25
2024-03-05T21:36:05.456Z,23.95
2024-03-05T21:38:33.547Z,20.90
2024-03-05T21:41:01.764Z,24.50
2024-03-05T21:43:29.184Z,29.38
2024-03-05T21:45:58.043Z,27.90
2024-03-05T21:48:27.848Z,21.38
2024-03-05T21:51:05.828Z,25.70
2024-03-05T21:53:37.971Z,22.35
2024-03-05T21:56:06.997Z,25.38
2024-03-05T21:58:35.238Z,23.80
2024-03-05T22:01:03.403Z,25.27
2024-03-05T22:03:33.293Z,20.25
2024-03-05T22:06:08.172Z,22.40
2024-03-05T22:08:40.696Z,21.92
2024-03-05T22:11:09.505Z,19.25
2024-03-05T22:13:37.725Z,22.58
2024-03-05T22:16:06.996Z,21.33
2024-03-05T22:18:37.644Z,23.50
2024-03-05T22:21:06.912Z,24.23
2024-03-05T22:23:34.981Z,28.35
2024-03-05T22:26:03.349Z,33.10
2024-03-05T22:28:31.518Z,33.67
2024-03-05T22:31:00.003Z,33.03
2024-03-05T22:33:28.182Z,26.67
2024-03-05T22:35:58.254Z,27.42
2024-03-05T22:38:26.464Z,32.72
2024-03-05T22:40:54.752Z,31.02
2024-03-05T22:43:24.220Z,42.65
2024-03-05T22:45:52.733Z,35.20
2024-03-05T22:48:23.540Z,35.65
2024-03-05T22:50:54.013Z,37.58
2024-03-05T22:53:23.912Z,47.15
2024-03-05T22:55:52.444Z,41.80
2024-03-05T22:58:23.714Z,42.42
2024-03-05T23:00:55.101Z,42.20
2024-03-05T23:03:23.478Z,51.88
2024-03-05T23:05:51.512Z,33.35
2024-03-05T23:08:19.891Z,41.88
2024-03-05T23:10:50.115Z,42.33
2024-03-05T23:13:18.193Z,42.05
2024-03-05T23:15:46.494Z,43.28
2024-03-05T23:18:14.578Z,43.85
2024-03-05T23:20:42.794Z,40.22
2024-03-05T23:23:12.735Z,41.72
2024-03-05T23:25:40.845Z,38.50
2024-03-05T23:28:13.046Z,32.63
2024-03-05T23:30:41.281Z,32.00
2024-03-05T23:33:09.299Z,36.70
2024-03-05T23:35:37.671Z,29.23
2024-03-05T23:38:06.272Z,29.00
2024-03-05T23:40:34.514Z,30.95
2024-03-05T23:43:02.878Z,27.42
2024-03-05T23:45:32.498Z,28.95
2024-03-05T23:48:00.748Z,26.10
2024-03-05T23:50:28.975Z,26.20
2024-03-05T23:52:57.170Z,30.08
2024-03-05T23:55:25.596Z,33.63
2024-03-05T23:57:53.744Z,36.88
